Time;durP1;ratioP1;P1;durP2;ratioP2;P2;SDS_P1;SDS_P2;PMS_P1;PMS_P2;Temp;Humidity;BMP_temperature;BMP_pressure;BME280_temperature;BME280_humidity;BME280_pressure;Samples;Min_cycle;Max_cycle;Signal;HPM_P1;HPM_P2
2021/11/05 00:00:44;;;;;;;17.57;13.77;;;15.40;99.90;;;;;;5072918;28;20460;-68
2021/11/05 00:03:11;;;;;;;21.60;13.40;;;15.40;99.90;;;;;;5072830;28;20466;-69
2021/11/05 00:05:40;;;;;;;17.30;12.23;;;15.40;99.90;;;;;;5072750;28;20434;-71
2021/11/05 00:08:10;;;;;;;15.60;12.67;;;15.40;99.90;;;;;;5073172;28;20434;-70
2021/11/05 00:10:38;;;;;;;16.50;11.87;;;15.40;99.90;;;;;;5072752;28;20437;-69
2021/11/05 00:13:05;;;;;;;14.03;11.87;;;15.40;99.90;;;;;;5072846;28;20642;-71
2021/11/05 00:15:32;;;;;;;194.53;59.97;;;15.30;99.90;;;;;;5072558;28;20430;-69
2021/11/05 00:17:58;;;;;;;61.07;28.43;;;15.30;99.90;;;;;;5072509;28;20438;-69
2021/11/05 00:20:33;;;;;;;23.13;12.77;;;15.30;99.90;;;;;;5072606;28;20442;-71
2021/11/05 00:22:59;;;;;;;18.60;11.30;;;15.30;99.90;;;;;;5072813;28;20421;-70
2021/11/05 00:25:28;;;;;;;16.43;12.30;;;15.30;99.90;;;;;;5072635;28;20849;-71
2021/11/05 00:27:56;;;;;;;16.47;11.80;;;15.20;99.90;;;;;;5072455;28;20418;-71
2021/11/05 00:30:22;;;;;;;20.57;10.80;;;15.20;99.90;;;;;;5072199;28;20465;-69
2021/11/05 00:32:49;;;;;;;21.53;12.20;;;15.20;99.90;;;;;;5072517;28;20998;-69
2021/11/05 00:35:16;;;;;;;18.70;11.53;;;15.10;99.90;;;;;;5072401;28;20842;-70
2021/11/05 00:37:43;;;;;;;20.40;12.37;;;15.10;99.90;;;;;;5072498;28;20430;-72
2021/11/05 00:40:13;;;;;;;21.43;12.63;;;15.10;99.90;;;;;;5072339;28;20440;-73
2021/11/05 00:42:42;;;;;;;20.17;12.87;;;15.10;99.90;;;;;;5072456;28;20461;-72
2021/11/05 00:45:09;;;;;;;23.20;12.27;;;15.10;99.90;;;;;;5072251;28;20469;-71
2021/11/05 00:47:36;;;;;;;26.47;13.60;;;15.10;99.90;;;;;;5072958;28;20440;-70
2021/11/05 00:50:03;;;;;;;26.87;15.80;;;15.10;99.90;;;;;;5078203;28;21006;-71
2021/11/05 00:52:42;;;;;;;28.23;15.80;;;15.00;99.90;;;;;;5076584;28;20913;-73
2021/11/05 00:55:09;;;;;;;32.63;15.47;;;15.00;99.90;;;;;;5076612;28;20421;-71
2021/11/05 00:57:37;;;;;;;22.20;15.93;;;15.00;99.90;;;;;;5075881;28;20441;-70
2021/11/05 01:00:17;;;;;;;19.00;14.03;;;15.00;99.90;;;;;;5076119;28;20489;-72
2021/11/05 01:02:43;;;;;;;23.10;13.70;;;15.00;99.90;;;;;;5076601;28;20786;-70
2021/11/05 01:05:17;;;;;;;22.43;14.00;;;15.00;99.90;;;;;;5077446;28;20422;-73
2021/11/05 01:07:44;;;;;;;17.97;13.20;;;15.00;99.90;;;;;;5075952;28;20445;-70
2021/11/05 01:10:11;;;;;;;21.93;14.50;;;15.00;99.90;;;;;;5076242;28;20438;-71
2021/11/05 01:12:37;;;;;;;18.70;13.33;;;15.00;99.90;;;;;;5076187;28;20840;-70
2021/11/05 01:15:05;;;;;;;17.73;12.80;;;15.00;99.90;;;;;;5075921;28;20441;-73
2021/11/05 01:17:32;;;;;;;21.93;15.00;;;15.00;99.90;;;;;;5076021;28;20436;-73
2021/11/05 01:20:09;;;;;;;18.33;13.20;;;15.00;99.90;;;;;;5075810;28;20413;-72
2021/11/05 01:22:35;;;;;;;19.03;13.77;;;15.00;99.90;;;;;;5075886;28;20529;-72
2021/11/05 01:25:06;;;;;;;20.80;14.40;;;15.00;99.90;;;;;;5075656;28;20441;-72
2021/11/05 01:27:33;;;;;;;17.93;13.23;;;15.00;99.90;;;;;;5075933;28;20437;-72
2021/11/05 01:29:59;;;;;;;20.47;13.80;;;15.00;99.90;;;;;;5075607;28;20992;-72
2021/11/05 01:32:29;;;;;;;21.80;14.90;;;15.00;99.90;;;;;;5075692;28;20482;-72
2021/11/05 01:34:55;;;;;;;19.50;13.70;;;15.00;99.90;;;;;;5075864;28;20432;-69
2021/11/05 01:37:27;;;;;;;20.43;14.43;;;15.00;99.90;;;;;;5075460;28;20441;-71
2021/11/05 01:39:56;;;;;;;16.43;13.67;;;15.00;99.90;;;;;;5075174;28;20434;-70
2021/11/05 01:42:24;;;;;;;20.83;15.40;;;15.00;99.90;;;;;;5075508;28;20430;-70
2021/11/05 01:44:50;;;;;;;20.90;14.80;;;15.00;99.90;;;;;;5075539;28;20520;-71
2021/11/05 01:47:20;;;;;;;26.40;16.70;;;15.00;99.90;;;;;;5075305;28;20528;-71
2021/11/05 01:49:48;;;;;;;21.77;14.90;;;15.00;99.90;;;;;;5076572;28;20457;-72
2021/11/05 01:52:15;;;;;;;21.40;15.50;;;15.00;99.90;;;;;;5076461;28;20946;-69
2021/11/05 01:54:43;;;;;;;22.40;16.40;;;15.00;99.90;;;;;;5075369;28;20446;-70
2021/11/05 01:57:10;;;;;;;18.30;14.90;;;15.00;99.90;;;;;;5075328;28;20440;-73
2021/11/05 01:59:37;;;;;;;20.83;16.10;;;15.00;99.90;;;;;;5074692;28;20445;-70
2021/11/05 02:02:06;;;;;;;20.67;15.30;;;15.00;99.90;;;;;;5074924;28;20527;-72
2021/11/05 02:04:37;;;;;;;25.03;16.50;;;15.00;99.90;;;;;;5075049;28;20430;-69
2021/11/05 02:07:04;;;;;;;20.80;15.53;;;15.00;99.90;;;;;;5075053;28;20460;-72
2021/11/05 02:09:33;;;;;;;21.47;15.93;;;15.00;99.90;;;;;;5075329;28;20444;-70
2021/11/05 02:12:00;;;;;;;21.30;15.10;;;15.00;99.90;;;;;;5074758;28;20564;-71
2021/11/05 02:14:27;;;;;;;19.83;14.73;;;15.00;99.90;;;;;;5075520;28;20437;-71
2021/11/05 02:17:00;;;;;;;21.73;15.30;;;15.00;99.90;;;;;;5075119;28;20426;-71
2021/11/05 02:19:29;;;;;;;20.50;15.40;;;15.00;99.90;;;;;;5074631;28;20436;-73
2021/11/05 02:21:58;;;;;;;20.03;14.63;;;14.90;99.90;;;;;;5074728;28;20441;-71
2021/11/05 02:24:29;;;;;;;21.90;15.30;;;14.90;99.90;;;;;;5075021;28;20436;-72
2021/11/05 02:26:58;;;;;;;19.57;15.33;;;15.00;99.90;;;;;;5074643;28;20848;-69
2021/11/05 02:29:28;;;;;;;21.67;14.83;;;14.90;99.90;;;;;;5074651;28;20524;-72
2021/11/05 02:31:55;;;;;;;23.20;16.67;;;14.90;99.90;;;;;;5074509;28;20477;-70
2021/11/05 02:34:23;;;;;;;22.90;15.63;;;14.90;99.90;;;;;;5074518;28;20429;-70
2021/11/05 02:37:06;;;;;;;19.27;14.90;;;14.90;99.90;;;;;;5075921;28;20429;-72
2021/11/05 02:39:35;;;;;;;23.90;15.80;;;14.90;99.90;;;;;;5074670;28;20444;-73
2021/11/05 02:42:02;;;;;;;18.87;14.17;;;14.90;99.90;;;;;;5074369;28;20453;-70
2021/11/05 02:44:28;;;;;;;19.43;16.27;;;14.80;99.90;;;;;;5074200;28;20450;-72
2021/11/05 02:46:54;;;;;;;20.80;15.90;;;14.70;99.90;;;;;;5074142;28;20421;-72
2021/11/05 02:49:22;;;;;;;20.83;15.87;;;14.70;99.90;;;;;;5074532;28;20437;-72
2021/11/05 02:51:50;;;;;;;25.63;17.30;;;14.60;99.90;;;;;;5074698;28;20513;-69
2021/11/05 02:54:16;;;;;;;23.33;16.93;;;14.60;99.90;;;;;;5073867;28;21013;-70
2021/11/05 02:56:43;;;;;;;19.73;15.77;;;14.50;99.90;;;;;;5074162;28;20429;-71
2021/11/05 02:59:09;;;;;;;20.63;15.63;;;14.50;99.90;;;;;;5074125;28;20957;-71
2021/11/05 03:01:39;;;;;;;24.30;17.67;;;14.50;99.90;;;;;;5074027;28;20795;-70
2021/11/05 03:04:10;;;;;;;20.87;17.17;;;14.40;99.90;;;;;;5074047;28;20899;-72
2021/11/05 03:06:41;;;;;;;19.87;16.17;;;14.40;99.90;;;;;;5073844;28;20879;-70
2021/11/05 03:09:10;;;;;;;20.80;15.17;;;14.30;99.90;;;;;;5073928;28;20409;-73
2021/11/05 03:11:36;;;;;;;17.63;14.40;;;14.30;99.90;;;;;;5072080;28;20515;-70
2021/11/05 03:14:05;;;;;;;19.07;13.43;;;14.20;99.90;;;;;;5073773;28;20410;-70
2021/11/05 03:16:32;;;;;;;13.83;12.33;;;14.20;99.90;;;;;;5073675;28;20396;-70
2021/11/05 03:18:58;;;;;;;11.13;9.93;;;14.10;99.90;;;;;;5073616;28;20404;-70
2021/11/05 03:21:24;;;;;;;10.47;9.37;;;14.00;99.90;;;;;;5073248;28;20393;-70
2021/11/05 03:23:50;;;;;;;9.47;7.50;;;14.00;99.90;;;;;;5073646;28;20388;-70
2021/11/05 03:26:17;;;;;;;5.70;4.93;;;13.90;99.90;;;;;;5073509;28;20396;-72
2021/11/05 03:28:43;;;;;;;5.43;4.37;;;13.90;99.90;;;;;;5073568;28;20422;-70
2021/11/05 03:31:16;;;;;;;7.80;5.03;;;13.70;99.90;;;;;;5073262;28;20445;-72
2021/11/05 03:33:44;;;;;;;5.47;4.97;;;13.60;99.90;;;;;;5073513;28;20412;-72
2021/11/05 03:36:11;;;;;;;4.90;4.40;;;13.60;99.90;;;;;;5073343;28;20930;-70
2021/11/05 03:38:38;;;;;;;6.90;4.17;;;13.50;99.90;;;;;;5073619;28;20430;-70
2021/11/05 03:41:09;;;;;;;5.80;4.57;;;13.40;99.90;;;;;;5073310;28;20417;-72
2021/11/05 03:43:35;;;;;;;5.20;4.70;;;13.40;99.90;;;;;;5072727;28;20880;-72
2021/11/05 03:46:04;;;;;;;5.73;4.47;;;13.30;99.90;;;;;;5073118;28;20950;-72
2021/11/05 03:48:35;;;;;;;6.60;5.30;;;13.20;99.90;;;;;;5073332;28;20465;-70
2021/11/05 03:51:03;;;;;;;3.40;3.10;;;13.10;99.90;;;;;;5073301;28;20441;-70
2021/11/05 03:53:29;;;;;;;5.40;4.10;;;13.10;99.90;;;;;;5072813;28;20995;-70
2021/11/05 03:55:56;;;;;;;4.23;3.80;;;13.00;99.90;;;;;;5073058;28;20425;-70
2021/11/05 03:58:22;;;;;;;4.17;3.80;;;13.00;99.90;;;;;;5074323;28;20185;-70
2021/11/05 04:00:48;;;;;;;5.50;4.53;;;12.90;99.90;;;;;;5073500;28;20862;-70
2021/11/05 04:03:15;;;;;;;4.07;3.70;;;12.90;99.90;;;;;;5073072;28;20512;-70
2021/11/05 04:05:41;;;;;;;5.83;4.00;;;12.80;99.90;;;;;;5072865;28;20429;-70
2021/11/05 04:08:09;;;;;;;4.87;4.47;;;12.80;99.90;;;;;;5072967;28;20472;-72
2021/11/05 04:10:42;;;;;;;3.43;3.13;;;12.80;99.90;;;;;;5073002;28;20958;-72
2021/11/05 04:13:09;;;;;;;3.37;3.13;;;12.70;99.90;;;;;;5072770;28;20546;-70
2021/11/05 04:15:43;;;;;;;4.17;3.30;;;12.60;99.90;;;;;;5072639;28;20430;-72
2021/11/05 04:18:09;;;;;;;3.53;3.23;;;12.60;99.90;;;;;;5072932;28;20452;-72
2021/11/05 04:20:36;;;;;;;3.90;3.57;;;12.60;99.90;;;;;;5072650;28;20434;-69
2021/11/05 04:23:17;;;;;;;3.50;3.20;;;12.50;99.90;;;;;;5072217;28;20433;-72
2021/11/05 04:25:46;;;;;;;3.53;3.23;;;12.50;99.90;;;;;;5072529;28;20436;-72
2021/11/05 04:28:23;;;;;;;5.70;3.50;;;12.50;99.90;;;;;;5072764;28;20426;-72
2021/11/05 04:30:49;;;;;;;3.90;3.43;;;12.40;99.90;;;;;;5072527;28;20472;-72
2021/11/05 04:33:23;;;;;;;4.23;3.80;;;12.40;99.90;;;;;;5072681;28;20489;-70
2021/11/05 04:35:48;;;;;;;3.83;3.47;;;12.40;99.90;;;;;;5072472;28;20465;-70
2021/11/05 04:38:15;;;;;;;4.13;3.72;;;12.30;99.90;;;;;;5072462;28;20195;-70
2021/11/05 04:40:42;;;;;;;4.78;4.05;;;12.30;99.90;;;;;;5072374;28;20295;-73
2021/11/05 04:43:09;;;;;;;5.27;3.87;;;12.30;99.90;;;;;;5072500;28;20189;-70
2021/11/05 04:45:36;;;;;;;3.30;3.00;;;12.20;99.90;;;;;;5072404;28;20426;-70
2021/11/05 04:48:04;;;;;;;3.93;3.60;;;12.20;99.90;;;;;;5072114;28;20495;-72
2021/11/05 04:50:30;;;;;;;4.40;4.10;;;12.10;99.90;;;;;;5072310;28;20442;-69
2021/11/05 04:52:57;;;;;;;3.80;3.50;;;12.10;99.90;;;;;;5071962;28;20251;-70
2021/11/05 04:55:24;;;;;;;4.63;4.13;;;12.10;99.90;;;;;;5072385;28;20231;-72
2021/11/05 04:58:06;;;;;;;3.97;3.35;;;12.00;99.90;;;;;;5072263;28;20662;-72
2021/11/05 05:00:34;;;;;;;3.70;3.40;;;12.00;99.90;;;;;;5072208;28;20208;-72
2021/11/05 05:03:00;;;;;;;4.18;3.78;;;11.90;99.90;;;;;;5071845;28;20177;-70
2021/11/05 05:05:29;;;;;;;4.00;3.70;;;11.90;99.90;;;;;;5072120;28;20606;-72
2021/11/05 05:08:00;;;;;;;4.53;3.43;;;11.90;99.90;;;;;;5072135;28;20177;-72
2021/11/05 05:10:30;;;;;;;12.18;6.70;;;11.90;99.90;;;;;;5072230;28;20964;-72
2021/11/05 05:12:56;;;;;;;7.50;5.55;;;11.80;99.90;;;;;;5072381;28;20216;-72
2021/11/05 05:15:23;;;;;;;3.60;3.10;;;11.80;99.90;;;;;;5071894;28;20197;-70
2021/11/05 05:17:50;;;;;;;5.60;3.70;;;11.80;99.90;;;;;;5072067;28;20421;-72
2021/11/05 05:20:18;;;;;;;3.90;3.60;;;11.80;99.90;;;;;;5072038;28;20197;-70
2021/11/05 05:22:48;;;;;;;3.63;3.33;;;11.80;99.90;;;;;;5072160;28;20181;-72
2021/11/05 05:25:19;;;;;;;3.30;3.00;;;11.70;99.90;;;;;;5072128;28;20201;-75
2021/11/05 05:27:48;;;;;;;3.97;3.58;;;11.80;99.90;;;;;;5072129;28;20177;-70
2021/11/05 05:30:15;;;;;;;4.10;3.80;;;11.70;99.90;;;;;;5073224;28;20189;-70
2021/11/05 05:32:43;;;;;;;3.70;3.40;;;11.70;99.90;;;;;;5072107;28;20217;-72
2021/11/05 05:35:11;;;;;;;4.15;3.58;;;11.70;99.90;;;;;;5073438;28;20219;-70
2021/11/05 05:37:39;;;;;;;3.95;3.65;;;11.70;99.90;;;;;;5075791;28;20181;-72
2021/11/05 05:40:07;;;;;;;6.55;3.67;;;11.70;99.90;;;;;;5075424;28;20201;-72
2021/11/05 05:42:37;;;;;;;5.93;4.00;;;11.70;99.90;;;;;;5075550;28;20665;-72
2021/11/05 05:45:05;;;;;;;4.45;4.05;;;11.70;99.90;;;;;;5075475;28;20577;-70
2021/11/05 05:47:42;;;;;;;6.53;3.95;;;11.70;99.90;;;;;;5075431;28;20182;-72
2021/11/05 05:50:15;;;;;;;3.42;3.13;;;11.70;99.90;;;;;;5075740;28;20204;-72
2021/11/05 05:52:43;;;;;;;4.40;4.00;;;11.70;99.90;;;;;;5074798;28;20684;-69
2021/11/05 05:55:13;;;;;;;4.60;3.80;;;11.70;99.90;;;;;;5074974;28;20230;-73
2021/11/05 05:57:48;;;;;;;3.85;3.55;;;11.70;99.90;;;;;;5075076;28;20223;-72
2021/11/05 06:00:15;;;;;;;4.30;3.90;;;11.70;99.90;;;;;;5075107;28;20192;-69
2021/11/05 06:02:41;;;;;;;4.22;3.83;;;11.70;99.90;;;;;;5075311;28;20216;-73
2021/11/05 06:05:08;;;;;;;5.18;3.97;;;11.70;99.90;;;;;;5074800;28;20682;-73
2021/11/05 06:07:36;;;;;;;4.22;3.92;;;11.80;99.90;;;;;;5075533;28;20185;-73
2021/11/05 06:10:04;;;;;;;5.35;3.80;;;11.70;99.90;;;;;;5074918;28;20228;-71
2021/11/05 06:12:32;;;;;;;6.13;3.97;;;11.70;99.90;;;;;;5075061;28;20259;-71
2021/11/05 06:15:04;;;;;;;4.93;4.47;;;11.70;99.90;;;;;;5074821;28;20284;-73
2021/11/05 06:17:34;;;;;;;4.55;4.15;;;11.70;99.90;;;;;;5073981;28;20226;-69
2021/11/05 06:20:05;;;;;;;4.30;3.88;;;11.70;99.90;;;;;;5054769;28;20197;-73
2021/11/05 06:22:32;;;;;;;4.28;3.70;;;11.70;99.90;;;;;;5055853;28;20182;-73
2021/11/05 06:25:00;;;;;;;4.22;3.83;;;11.70;99.90;;;;;;5060290;28;20201;-71
2021/11/05 06:27:30;;;;;;;5.20;4.10;;;11.70;99.90;;;;;;5073847;28;20181;-74
2021/11/05 06:30:04;;;;;;;3.83;3.53;;;11.70;99.90;;;;;;5072589;28;20209;-73
2021/11/05 06:32:31;;;;;;;5.93;4.40;;;11.70;99.90;;;;;;5074322;28;20671;-71
2021/11/05 06:35:01;;;;;;;3.75;3.40;;;11.70;99.90;;;;;;5078989;28;20212;-71
2021/11/05 06:37:33;;;;;;;3.65;3.35;;;11.70;99.90;;;;;;5072916;28;20277;-72
2021/11/05 06:39:59;;;;;;;3.85;3.55;;;11.70;99.90;;;;;;5067095;28;20224;-70
2021/11/05 06:42:30;;;;;;;3.70;3.40;;;11.70;99.90;;;;;;5067236;28;20185;-70
2021/11/05 06:44:56;;;;;;;9.13;3.92;;;11.70;99.90;;;;;;5065559;28;20206;-70
2021/11/05 06:47:22;;;;;;;4.05;3.65;;;11.70;99.90;;;;;;5070735;28;20250;-73
2021/11/05 06:49:48;;;;;;;3.83;3.42;;;11.70;99.90;;;;;;5071281;28;20226;-70
2021/11/05 06:52:17;;;;;;;3.77;3.47;;;11.70;99.90;;;;;;5071722;28;20239;-72
2021/11/05 06:54:44;;;;;;;4.15;3.72;;;11.70;99.90;;;;;;5072835;28;20392;-73
2021/11/05 06:57:10;;;;;;;5.63;4.30;;;11.70;99.90;;;;;;5073081;28;20182;-70
2021/11/05 06:59:40;;;;;;;4.60;4.07;;;11.70;99.90;;;;;;5073693;28;20650;-70
2021/11/05 07:02:07;;;;;;;3.95;3.65;;;11.70;99.90;;;;;;5097486;28;20426;-72
2021/11/05 07:04:33;;;;;;;4.45;4.10;;;11.80;99.90;;;;;;5068330;28;20239;-70
2021/11/05 07:07:01;;;;;;;4.80;4.07;;;11.80;99.90;;;;;;5066736;28;20205;-70
2021/11/05 07:09:29;;;;;;;4.53;4.13;;;11.80;99.90;;;;;;5068832;28;20867;-70
2021/11/05 07:11:55;;;;;;;6.05;4.13;;;11.80;99.90;;;;;;5069078;28;20461;-73
2021/11/05 07:14:22;;;;;;;4.88;4.47;;;11.80;99.90;;;;;;5070117;28;20686;-72
2021/11/05 07:16:49;;;;;;;4.13;3.80;;;11.80;99.90;;;;;;5071596;28;20691;-73
2021/11/05 07:19:18;;;;;;;4.72;4.32;;;11.80;99.90;;;;;;5071857;28;20205;-69
2021/11/05 07:21:59;;;;;;;7.18;4.70;;;11.80;99.90;;;;;;5076958;28;20197;-72
2021/11/05 07:24:27;;;;;;;4.68;4.30;;;11.80;99.90;;;;;;5081208;28;20235;-72
2021/11/05 07:26:57;;;;;;;4.75;4.35;;;11.80;99.90;;;;;;5077388;28;20226;-72
2021/11/05 07:29:27;;;;;;;4.57;4.18;;;11.80;99.90;;;;;;5070900;28;20200;-70
2021/11/05 07:32:01;;;;;;;6.88;4.25;;;11.80;99.90;;;;;;5070201;28;20293;-70
2021/11/05 07:34:33;;;;;;;4.95;4.55;;;11.80;99.90;;;;;;5070728;28;20197;-70
2021/11/05 07:37:07;;;;;;;4.43;4.03;;;11.80;99.90;;;;;;5070758;28;20205;-73
2021/11/05 07:39:32;;;;;;;4.55;4.15;;;11.70;99.90;;;;;;5070449;28;20284;-70
2021/11/05 07:42:00;;;;;;;4.73;4.20;;;11.70;99.90;;;;;;5069880;28;20674;-70
2021/11/05 07:44:27;;;;;;;4.53;4.13;;;11.70;99.90;;;;;;5068914;28;20681;-70
2021/11/05 07:46:58;;;;;;;4.35;3.95;;;11.70;99.90;;;;;;5069333;28;20682;-70
2021/11/05 07:49:25;;;;;;;4.70;4.30;;;11.70;99.90;;;;;;5051889;28;20726;-71
2021/11/05 07:51:55;;;;;;;4.47;4.07;;;11.70;99.90;;;;;;5061996;28;20212;-73
2021/11/05 07:54:23;;;;;;;4.20;3.80;;;11.70;99.90;;;;;;5071346;28;20465;-71
2021/11/05 07:56:51;;;;;;;3.90;3.60;;;11.70;99.90;;;;;;5068864;28;20255;-71
2021/11/05 07:59:17;;;;;;;5.13;4.50;;;11.70;99.90;;;;;;5072189;28;20197;-70
2021/11/05 08:01:43;;;;;;;4.70;4.20;;;11.70;99.90;;;;;;5072123;28;20282;-71
2021/11/05 08:04:19;;;;;;;5.13;4.63;;;11.70;99.90;;;;;;5071829;28;20189;-73
2021/11/05 08:06:45;;;;;;;4.68;4.18;;;11.70;99.90;;;;;;5049091;28;20186;-70
2021/11/05 08:09:11;;;;;;;5.60;5.10;;;11.70;99.90;;;;;;5068540;28;20181;-71
2021/11/05 08:11:41;;;;;;;4.40;4.10;;;11.70;99.90;;;;;;5070485;28;22001;-73
2021/11/05 08:14:10;;;;;;;4.45;4.05;;;11.70;99.90;;;;;;5070117;28;20989;-73
2021/11/05 08:16:38;;;;;;;4.60;4.20;;;11.70;99.90;;;;;;5069822;28;20169;-71
2021/11/05 08:19:04;;;;;;;5.10;4.70;;;11.70;99.90;;;;;;5069345;28;20658;-71
2021/11/05 08:21:36;;;;;;;6.75;4.63;;;11.70;99.90;;;;;;5070765;28;20188;-71
2021/11/05 08:24:05;;;;;;;5.57;4.63;;;11.70;99.90;;;;;;5069525;28;20192;-74
2021/11/05 08:26:32;;;;;;;6.40;5.25;;;11.70;99.90;;;;;;5071248;28;20224;-71
2021/11/05 08:28:59;;;;;;;5.05;4.55;;;11.80;99.90;;;;;;5072809;28;20595;-73
2021/11/05 08:31:30;;;;;;;5.25;4.85;;;11.80;99.90;;;;;;5072219;28;20212;-70
2021/11/05 08:33:56;;;;;;;4.38;4.03;;;11.80;99.90;;;;;;5071648;28;20576;-71
2021/11/05 08:36:26;;;;;;;5.80;4.85;;;11.80;99.90;;;;;;5071134;28;20174;-71
2021/11/05 08:38:54;;;;;;;6.40;5.35;;;11.80;99.90;;;;;;5067861;28;20184;-73
2021/11/05 08:41:20;;;;;;;4.43;4.03;;;11.80;99.90;;;;;;5068015;28;20177;-70
2021/11/05 08:43:52;;;;;;;5.20;4.63;;;11.80;99.90;;;;;;5069258;28;20184;-71
2021/11/05 08:46:21;;;;;;;5.50;5.00;;;11.90;99.90;;;;;;5068989;28;20169;-70
2021/11/05 08:48:57;;;;;;;7.18;6.15;;;11.90;99.90;;;;;;5070079;28;20195;-71
2021/11/05 08:51:25;;;;;;;6.35;5.75;;;12.00;99.90;;;;;;5069492;28;20185;-71
2021/11/05 08:53:59;;;;;;;5.22;4.72;;;12.00;99.90;;;;;;5068623;28;20706;-73
2021/11/05 08:56:27;;;;;;;4.57;4.22;;;12.00;99.90;;;;;;5068037;28;20183;-71
2021/11/05 08:58:54;;;;;;;5.60;4.73;;;12.10;99.90;;;;;;5041256;28;20563;-74
2021/11/05 09:01:20;;;;;;;4.80;4.37;;;12.20;99.90;;;;;;5046060;28;20554;-70
2021/11/05 09:03:49;;;;;;;5.07;4.57;;;12.30;99.90;;;;;;5036879;28;20435;-74
2021/11/05 09:06:21;;;;;;;4.67;4.27;;;12.30;99.90;;;;;;5036590;28;20586;-71
2021/11/05 09:08:49;;;;;;;5.03;4.30;;;12.40;99.90;;;;;;5040427;28;20845;-71
2021/11/05 09:11:15;;;;;;;5.22;4.72;;;12.50;99.90;;;;;;5040370;28;20488;-71
2021/11/05 09:13:45;;;;;;;4.60;4.20;;;12.60;99.90;;;;;;5068930;28;20220;-73
2021/11/05 09:16:12;;;;;;;5.50;4.97;;;12.60;99.90;;;;;;5072263;28;20545;-71
2021/11/05 09:18:39;;;;;;;4.87;4.37;;;12.70;99.90;;;;;;5076888;28;20479;-71
2021/11/05 09:21:05;;;;;;;4.90;4.40;;;12.70;99.90;;;;;;5069434;28;20966;-73
2021/11/05 09:23:37;;;;;;;4.43;4.03;;;12.80;99.90;;;;;;5061442;28;20807;-71
2021/11/05 09:26:04;;;;;;;5.30;4.80;;;12.80;99.90;;;;;;5066323;28;20460;-70
2021/11/05 09:28:30;;;;;;;6.30;4.53;;;12.80;99.90;;;;;;5064400;28;20464;-71
2021/11/05 09:31:07;;;;;;;5.63;4.80;;;12.80;99.90;;;;;;5065088;28;20450;-71
2021/11/05 09:33:33;;;;;;;5.63;4.93;;;12.80;99.90;;;;;;5063378;28;20535;-70
2021/11/05 09:36:03;;;;;;;4.50;4.10;;;12.80;99.90;;;;;;5067897;28;20441;-73
2021/11/05 09:38:29;;;;;;;5.80;5.30;;;12.80;99.90;;;;;;5066707;28;20442;-71
2021/11/05 09:40:57;;;;;;;5.90;5.40;;;12.80;99.90;;;;;;5067028;28;20448;-74
2021/11/05 09:43:24;;;;;;;4.40;4.00;;;12.80;99.90;;;;;;5073388;28;20466;-73
2021/11/05 09:45:52;;;;;;;6.93;4.57;;;12.80;99.90;;;;;;5066809;28;20450;-70
2021/11/05 09:48:21;;;;;;;4.40;4.00;;;12.80;99.90;;;;;;5063838;28;20449;-71
2021/11/05 09:50:47;;;;;;;4.60;4.20;;;12.80;99.90;;;;;;5066025;28;20530;-71
2021/11/05 09:53:14;;;;;;;5.10;4.60;;;12.80;99.90;;;;;;5068771;28;20494;-71
2021/11/05 09:55:50;;;;;;;4.87;4.40;;;12.80;99.90;;;;;;5066532;28;20450;-71
2021/11/05 09:58:17;;;;;;;4.93;4.30;;;12.80;99.90;;;;;;5059694;28;20527;-70
2021/11/05 10:00:45;;;;;;;5.50;4.50;;;12.80;99.90;;;;;;5066639;28;20488;-73
2021/11/05 10:03:14;;;;;;;5.57;5.07;;;12.80;99.90;;;;;;5066915;28;20733;-70
2021/11/05 10:05:41;;;;;;;6.20;5.70;;;12.80;99.90;;;;;;5059854;28;20446;-70
2021/11/05 10:08:07;;;;;;;4.90;4.50;;;12.80;99.90;;;;;;5058691;28;20773;-70
2021/11/05 10:10:38;;;;;;;5.13;4.63;;;12.90;99.90;;;;;;5063795;28;20445;-73
2021/11/05 10:13:13;;;;;;;6.40;5.40;;;12.80;99.90;;;;;;5062141;28;20478;-73
2021/11/05 10:15:45;;;;;;;5.63;5.13;;;12.90;99.90;;;;;;5059260;28;20847;-70
2021/11/05 10:18:24;;;;;;;10.20;5.20;;;12.90;99.90;;;;;;5066311;28;20445;-71
2021/11/05 10:21:15;;;;;;;5.70;5.20;;;13.00;99.90;;;;;;5065201;28;20466;-73
2021/11/05 10:23:46;;;;;;;5.70;5.20;;;13.00;99.90;;;;;;5072272;28;20446;-70
2021/11/05 10:26:28;;;;;;;5.30;4.90;;;13.10;99.90;;;;;;5058017;28;20456;-73
2021/11/05 10:29:00;;;;;;;5.80;5.20;;;13.10;99.90;;;;;;5070869;28;20444;-73
2021/11/05 10:31:33;;;;;;;5.53;5.00;;;13.20;99.90;;;;;;5057676;28;20466;-73
2021/11/05 10:34:06;;;;;;;5.20;4.70;;;13.20;99.90;;;;;;5062577;28;20417;-73
2021/11/05 10:36:37;;;;;;;6.03;5.43;;;13.30;99.90;;;;;;5080144;28;20439;-70
2021/11/05 10:39:04;;;;;;;5.13;4.63;;;13.40;99.90;;;;;;5065908;28;20422;-70
2021/11/05 10:41:34;;;;;;;4.90;4.40;;;13.40;99.90;;;;;;5063481;28;20426;-69
2021/11/05 10:44:13;;;;;;;4.93;4.47;;;13.40;99.90;;;;;;5079726;28;20438;-72
2021/11/05 10:46:43;;;;;;;5.33;4.83;;;13.30;99.90;;;;;;5058480;28;20434;-73
2021/11/05 10:49:30;;;;;;;6.20;5.70;;;13.30;99.90;;;;;;5062216;28;20466;-70
2021/11/05 10:52:18;;;;;;;6.83;5.97;;;13.30;99.90;;;;;;5066160;28;20462;-71
2021/11/05 10:54:59;;;;;;;6.00;5.40;;;13.20;99.90;;;;;;5061227;28;20570;-73
2021/11/05 10:57:48;;;;;;;6.13;5.63;;;13.20;99.90;;;;;;5062788;28;20475;-70
2021/11/05 11:00:29;;;;;;;5.47;4.97;;;13.20;99.90;;;;;;5061471;28;20476;-73
2021/11/05 11:03:21;;;;;;;6.27;5.67;;;13.20;99.90;;;;;;5060007;28;21026;-71
2021/11/05 11:05:47;;;;;;;10.43;7.23;;;13.20;99.90;;;;;;5064620;28;20987;-71
2021/11/05 11:08:20;;;;;;;6.53;5.93;;;13.10;99.90;;;;;;5065261;28;20426;-74
2021/11/05 11:11:17;;;;;;;5.60;4.93;;;13.10;99.90;;;;;;5066755;28;20438;-73
2021/11/05 11:13:47;;;;;;;5.73;5.23;;;13.10;99.90;;;;;;5066072;28;20480;-73
2021/11/05 11:16:25;;;;;;;6.10;4.97;;;13.10;99.90;;;;;;5060646;28;21108;-71
2021/11/05 11:18:54;;;;;;;7.23;6.20;;;13.10;99.90;;;;;;5068959;28;20420;-73
2021/11/05 11:21:24;;;;;;;5.50;5.00;;;13.10;99.90;;;;;;5067183;28;20926;-73
2021/11/05 11:23:50;;;;;;;6.47;5.77;;;13.10;99.90;;;;;;5071532;28;20453;-73
2021/11/05 11:26:17;;;;;;;6.40;5.80;;;13.10;99.90;;;;;;5069850;28;20534;-73
2021/11/05 11:28:45;;;;;;;6.10;5.50;;;13.20;99.90;;;;;;5071753;28;20452;-75
2021/11/05 11:31:13;;;;;;;7.13;6.00;;;13.20;99.90;;;;;;5070271;28;20523;-74
2021/11/05 11:33:41;;;;;;;5.03;4.63;;;13.20;99.90;;;;;;5069999;28;20485;-73
2021/11/05 11:36:10;;;;;;;4.87;4.30;;;13.30;99.90;;;;;;5063883;28;20461;-73
2021/11/05 11:38:37;;;;;;;4.13;3.83;;;13.30;99.90;;;;;;5065458;28;20434;-70
2021/11/05 11:44:41;;;;;;;4.30;3.90;;;13.40;99.90;;;;;;5063462;28;20471;-71
2021/11/05 11:47:14;;;;;;;4.90;4.20;;;13.40;99.90;;;;;;5065649;28;20430;-74
2021/11/05 11:49:42;;;;;;;4.67;4.27;;;13.50;99.90;;;;;;5065839;28;20469;-70
2021/11/05 11:52:29;;;;;;;5.27;4.77;;;13.60;99.90;;;;;;5064617;28;20541;-73
2021/11/05 11:55:18;;;;;;;4.53;4.13;;;13.60;99.90;;;;;;5065235;28;20817;-73
2021/11/05 11:57:44;;;;;;;5.50;5.00;;;13.70;99.90;;;;;;5066364;28;20540;-71
2021/11/05 12:00:23;;;;;;;5.27;4.80;;;13.70;99.90;;;;;;5070409;28;20442;-71
2021/11/05 12:03:27;;;;;;;10.30;7.37;;;13.70;99.90;;;;;;5067177;28;20448;-71
2021/11/05 12:06:46;;;;;;;5.97;4.67;;;13.70;99.90;;;;;;5070192;28;20502;-70
2021/11/05 12:09:33;;;;;;;6.40;4.97;;;13.70;99.90;;;;;;5022680;28;20546;-71
2021/11/05 12:12:21;;;;;;;28.20;16.13;;;13.70;99.90;;;;;;5007706;28;20471;-73
2021/11/05 12:15:08;;;;;;;5.90;5.17;;;13.70;99.90;;;;;;5020271;28;20614;-71
2021/11/05 12:17:54;;;;;;;5.90;5.13;;;13.70;99.90;;;;;;4993508;28;20439;-73
2021/11/05 12:20:34;;;;;;;5.70;5.10;;;13.60;99.90;;;;;;5022644;28;20470;-74
2021/11/05 12:23:12;;;;;;;5.47;4.97;;;13.60;99.90;;;;;;5001238;28;21090;-74
2021/11/05 12:25:59;;;;;;;4.47;4.07;;;13.60;99.90;;;;;;5002815;28;20460;-73
2021/11/05 12:28:41;;;;;;;5.53;4.87;;;13.50;99.90;;;;;;5017136;28;20786;-73
2021/11/05 12:31:29;;;;;;;6.53;5.93;;;13.50;99.90;;;;;;5019784;28;20446;-74
2021/11/05 12:34:15;;;;;;;6.27;5.47;;;13.50;99.90;;;;;;5016763;28;20487;-73
2021/11/05 12:36:46;;;;;;;6.20;5.60;;;13.40;99.90;;;;;;5023376;28;20850;-73
2021/11/05 12:39:14;;;;;;;5.87;5.30;;;13.40;99.90;;;;;;4996438;28;20586;-74
2021/11/05 12:41:59;;;;;;;6.00;5.07;;;13.30;99.90;;;;;;5020783;28;20451;-73
2021/11/05 12:44:28;;;;;;;6.40;5.33;;;13.30;99.90;;;;;;5001762;28;20852;-71
2021/11/05 12:47:03;;;;;;;6.90;5.60;;;13.20;99.90;;;;;;4999279;28;20586;-73
2021/11/05 12:49:31;;;;;;;5.57;5.03;;;13.20;99.90;;;;;;5028609;28;20443;-73
2021/11/05 12:52:08;;;;;;;4.70;4.30;;;13.10;99.90;;;;;;5031364;28;20966;-73
2021/11/05 12:54:38;;;;;;;5.93;5.33;;;13.10;99.90;;;;;;5063723;28;20793;-70
2021/11/05 12:57:13;;;;;;;5.30;4.80;;;13.10;99.90;;;;;;5064361;28;20441;-73
2021/11/05 12:59:55;;;;;;;6.37;5.57;;;13.10;99.90;;;;;;5063617;28;20516;-74